sensor_id;sensor_type;location;lat;lon;timestamp;P1;durP1;ratioP1;P2;durP2;ratioP2
33491;SDS011;20010;51.488;7.232;2022-09-09T00:00:23;7.55;;;7.15;;
33491;SDS011;20010;51.488;7.232;2022-09-09T00:02:55;7.28;;;6.88;;
33491;SDS011;20010;51.488;7.232;2022-09-09T00:05:48;7.30;;;7.00;;
33491;SDS011;20010;51.488;7.232;2022-09-09T00:08:29;8.10;;;7.50;;
33491;SDS011;20010;51.488;7.232;2022-09-09T00:11:31;7.82;;;7.35;;
33491;SDS011;20010;51.488;7.232;2022-09-09T00:14:12;7.40;;;7.00;;
33491;SDS011;20010;51.488;7.232;2022-09-09T00:16:55;7.43;;;6.93;;
33491;SDS011;20010;51.488;7.232;2022-09-09T00:19:33;7.40;;;7.07;;
33491;SDS011;20010;51.488;7.232;2022-09-09T00:22:17;7.25;;;6.95;;
33491;SDS011;20010;51.488;7.232;2022-09-09T00:24:51;7.60;;;7.10;;
33491;SDS011;20010;51.488;7.232;2022-09-09T00:30:12;7.43;;;7.10;;
33491;SDS011;20010;51.488;7.232;2022-09-09T00:32:42;7.47;;;7.07;;
33491;SDS011;20010;51.488;7.232;2022-09-09T00:35:17;8.32;;;7.57;;
33491;SDS011;20010;51.488;7.232;2022-09-09T00:37:50;7.30;;;6.97;;
33491;SDS011;20010;51.488;7.232;2022-09-09T00:40:24;7.80;;;7.40;;
33491;SDS011;20010;51.488;7.232;2022-09-09T00:48:12;7.28;;;6.97;;
33491;SDS011;20010;51.488;7.232;2022-09-09T00:51:15;7.30;;;7.00;;
33491;SDS011;20010;51.488;7.232;2022-09-09T00:56:45;7.50;;;7.10;;
33491;SDS011;20010;51.488;7.232;2022-09-09T01:02:19;7.57;;;7.07;;
33491;SDS011;20010;51.488;7.232;2022-09-09T01:04:55;7.05;;;6.68;;
33491;SDS011;20010;51.488;7.232;2022-09-09T01:07:47;7.55;;;7.00;;
33491;SDS011;20010;51.488;7.232;2022-09-09T01:11:07;8.70;;;7.90;;
33491;SDS011;20010;51.488;7.232;2022-09-09T01:13:27;7.40;;;7.00;;
33491;SDS011;20010;51.488;7.232;2022-09-09T01:15:57;7.78;;;7.20;;
33491;SDS011;20010;51.488;7.232;2022-09-09T01:18:28;7.85;;;7.28;;
33491;SDS011;20010;51.488;7.232;2022-09-09T01:29:10;7.85;;;7.47;;
33491;SDS011;20010;51.488;7.232;2022-09-09T01:31:51;8.38;;;7.88;;
33491;SDS011;20010;51.488;7.232;2022-09-09T01:34:31;8.40;;;7.90;;
33491;SDS011;20010;51.488;7.232;2022-09-09T01:37:03;8.32;;;7.90;;
33491;SDS011;20010;51.488;7.232;2022-09-09T01:39:37;8.30;;;7.88;;
33491;SDS011;20010;51.488;7.232;2022-09-09T01:42:06;8.13;;;7.72;;
33491;SDS011;20010;51.488;7.232;2022-09-09T01:44:35;8.23;;;7.83;;
33491;SDS011;20010;51.488;7.232;2022-09-09T01:47:04;8.90;;;8.30;;
33491;SDS011;20010;51.488;7.232;2022-09-09T01:49:31;8.88;;;8.38;;
33491;SDS011;20010;51.488;7.232;2022-09-09T01:51:59;8.80;;;8.30;;
33491;SDS011;20010;51.488;7.232;2022-09-09T01:54:27;9.63;;;9.13;;
33491;SDS011;20010;51.488;7.232;2022-09-09T02:04:53;9.90;;;9.25;;
33491;SDS011;20010;51.488;7.232;2022-09-09T02:10:43;8.65;;;8.20;;
33491;SDS011;20010;51.488;7.232;2022-09-09T02:13:30;9.85;;;9.07;;
33491;SDS011;20010;51.488;7.232;2022-09-09T02:16:07;9.38;;;8.68;;
33491;SDS011;20010;51.488;7.232;2022-09-09T02:18:39;9.15;;;8.55;;
33491;SDS011;20010;51.488;7.232;2022-09-09T02:21:33;9.55;;;8.80;;
33491;SDS011;20010;51.488;7.232;2022-09-09T02:24:04;9.20;;;8.70;;
33491;SDS011;20010;51.488;7.232;2022-09-09T02:26:37;9.63;;;9.02;;
33491;SDS011;20010;51.488;7.232;2022-09-09T02:29:12;10.10;;;9.38;;
33491;SDS011;20010;51.488;7.232;2022-09-09T02:31:49;9.82;;;8.90;;
33491;SDS011;20010;51.488;7.232;2022-09-09T02:34:17;9.45;;;8.95;;
33491;SDS011;20010;51.488;7.232;2022-09-09T02:36:46;9.43;;;8.82;;
33491;SDS011;20010;51.488;7.232;2022-09-09T02:39:15;9.73;;;8.93;;
33491;SDS011;20010;51.488;7.232;2022-09-09T02:41:43;9.98;;;8.95;;
33491;SDS011;20010;51.488;7.232;2022-09-09T02:44:13;9.43;;;8.70;;
33491;SDS011;20010;51.488;7.232;2022-09-09T02:50:35;9.50;;;8.85;;
33491;SDS011;20010;51.488;7.232;2022-09-09T02:53:15;9.80;;;9.00;;
33491;SDS011;20010;51.488;7.232;2022-09-09T02:56:02;8.95;;;8.25;;
33491;SDS011;20010;51.488;7.232;2022-09-09T02:58:32;9.15;;;8.30;;
33491;SDS011;20010;51.488;7.232;2022-09-09T03:01:00;8.85;;;8.20;;
33491;SDS011;20010;51.488;7.232;2022-09-09T03:03:29;8.90;;;8.30;;
33491;SDS011;20010;51.488;7.232;2022-09-09T03:05:56;9.07;;;8.55;;
33491;SDS011;20010;51.488;7.232;2022-09-09T03:08:26;8.67;;;8.10;;
33491;SDS011;20010;51.488;7.232;2022-09-09T03:10:54;9.10;;;8.40;;
33491;SDS011;20010;51.488;7.232;2022-09-09T03:13:21;8.77;;;8.05;;
33491;SDS011;20010;51.488;7.232;2022-09-09T03:15:48;9.27;;;8.40;;
33491;SDS011;20010;51.488;7.232;2022-09-09T03:18:14;8.95;;;8.35;;
33491;SDS011;20010;51.488;7.232;2022-09-09T03:20:41;8.52;;;7.93;;
33491;SDS011;20010;51.488;7.232;2022-09-09T03:23:08;8.80;;;8.25;;
33491;SDS011;20010;51.488;7.232;2022-09-09T03:25:46;8.23;;;7.57;;
33491;SDS011;20010;51.488;7.232;2022-09-09T03:28:14;8.25;;;7.72;;
33491;SDS011;20010;51.488;7.232;2022-09-09T03:30:41;8.20;;;7.70;;
33491;SDS011;20010;51.488;7.232;2022-09-09T03:33:08;7.90;;;7.40;;
33491;SDS011;20010;51.488;7.232;2022-09-09T03:35:34;8.45;;;7.70;;
33491;SDS011;20010;51.488;7.232;2022-09-09T03:38:02;8.45;;;7.68;;
33491;SDS011;20010;51.488;7.232;2022-09-09T03:40:29;8.18;;;7.57;;
33491;SDS011;20010;51.488;7.232;2022-09-09T03:42:57;7.93;;;7.38;;
33491;SDS011;20010;51.488;7.232;2022-09-09T03:45:23;8.60;;;7.78;;
33491;SDS011;20010;51.488;7.232;2022-09-09T03:47:50;7.32;;;6.75;;
33491;SDS011;20010;51.488;7.232;2022-09-09T03:50:17;7.60;;;7.00;;
33491;SDS011;20010;51.488;7.232;2022-09-09T03:52:44;7.15;;;6.65;;
33491;SDS011;20010;51.488;7.232;2022-09-09T03:55:12;7.30;;;6.80;;
33491;SDS011;20010;51.488;7.232;2022-09-09T03:57:38;7.75;;;7.10;;
33491;SDS011;20010;51.488;7.232;2022-09-09T04:00:06;8.23;;;7.53;;
33491;SDS011;20010;51.488;7.232;2022-09-09T04:02:34;8.52;;;7.82;;
33491;SDS011;20010;51.488;7.232;2022-09-09T04:05:01;7.55;;;7.10;;
33491;SDS011;20010;51.488;7.232;2022-09-09T04:07:28;7.80;;;7.30;;
33491;SDS011;20010;51.488;7.232;2022-09-09T04:09:55;8.13;;;7.32;;
33491;SDS011;20010;51.488;7.232;2022-09-09T04:12:21;7.88;;;7.28;;
33491;SDS011;20010;51.488;7.232;2022-09-09T04:14:48;7.85;;;7.28;;
33491;SDS011;20010;51.488;7.232;2022-09-09T04:17:15;7.88;;;7.28;;
33491;SDS011;20010;51.488;7.232;2022-09-09T04:19:43;7.40;;;7.00;;
33491;SDS011;20010;51.488;7.232;2022-09-09T04:22:10;7.75;;;7.25;;
33491;SDS011;20010;51.488;7.232;2022-09-09T04:24:36;7.88;;;7.38;;
33491;SDS011;20010;51.488;7.232;2022-09-09T04:27:03;8.00;;;7.35;;
33491;SDS011;20010;51.488;7.232;2022-09-09T04:29:30;8.30;;;7.63;;
33491;SDS011;20010;51.488;7.232;2022-09-09T04:31:57;9.02;;;7.70;;
33491;SDS011;20010;51.488;7.232;2022-09-09T04:34:24;7.13;;;6.57;;
33491;SDS011;20010;51.488;7.232;2022-09-09T04:36:51;8.00;;;7.05;;
33491;SDS011;20010;51.488;7.232;2022-09-09T04:39:18;7.95;;;7.45;;
33491;SDS011;20010;51.488;7.232;2022-09-09T04:41:46;7.45;;;6.93;;
33491;SDS011;20010;51.488;7.232;2022-09-09T04:44:13;7.43;;;6.70;;
33491;SDS011;20010;51.488;7.232;2022-09-09T04:46:40;7.88;;;7.20;;
33491;SDS011;20010;51.488;7.232;2022-09-09T04:49:07;7.63;;;6.95;;
33491;SDS011;20010;51.488;7.232;2022-09-09T04:51:40;8.05;;;7.22;;
33491;SDS011;20010;51.488;7.232;2022-09-09T04:54:07;10.32;;;9.55;;
33491;SDS011;20010;51.488;7.232;2022-09-09T04:56:33;10.70;;;8.45;;
33491;SDS011;20010;51.488;7.232;2022-09-09T04:59:00;7.50;;;6.95;;
33491;SDS011;20010;51.488;7.232;2022-09-09T05:01:29;8.38;;;7.60;;
33491;SDS011;20010;51.488;7.232;2022-09-09T05:03:55;7.80;;;7.30;;
33491;SDS011;20010;51.488;7.232;2022-09-09T05:06:22;8.00;;;7.30;;
33491;SDS011;20010;51.488;7.232;2022-09-09T05:08:49;7.72;;;7.20;;
33491;SDS011;20010;51.488;7.232;2022-09-09T05:11:17;7.70;;;7.10;;
33491;SDS011;20010;51.488;7.232;2022-09-09T05:13:53;9.77;;;8.85;;
33491;SDS011;20010;51.488;7.232;2022-09-09T05:16:20;9.23;;;8.40;;
33491;SDS011;20010;51.488;7.232;2022-09-09T05:18:49;7.97;;;7.40;;
33491;SDS011;20010;51.488;7.232;2022-09-09T05:21:17;7.65;;;7.00;;
33491;SDS011;20010;51.488;7.232;2022-09-09T05:23:46;8.23;;;6.90;;
33491;SDS011;20010;51.488;7.232;2022-09-09T05:26:14;7.70;;;7.10;;
33491;SDS011;20010;51.488;7.232;2022-09-09T05:28:43;7.68;;;7.00;;
33491;SDS011;20010;51.488;7.232;2022-09-09T05:31:10;13.68;;;12.35;;
33491;SDS011;20010;51.488;7.232;2022-09-09T05:33:40;9.20;;;8.40;;
33491;SDS011;20010;51.488;7.232;2022-09-09T05:36:10;7.17;;;6.73;;
33491;SDS011;20010;51.488;7.232;2022-09-09T05:38:41;8.07;;;7.35;;
33491;SDS011;20010;51.488;7.232;2022-09-09T05:41:09;9.60;;;8.80;;
33491;SDS011;20010;51.488;7.232;2022-09-09T05:43:37;8.30;;;7.30;;
33491;SDS011;20010;51.488;7.232;2022-09-09T05:46:06;7.50;;;7.00;;
33491;SDS011;20010;51.488;7.232;2022-09-09T05:48:34;7.13;;;6.55;;
33491;SDS011;20010;51.488;7.232;2022-09-09T05:51:04;7.13;;;6.53;;
33491;SDS011;20010;51.488;7.232;2022-09-09T05:53:36;7.30;;;6.70;;
33491;SDS011;20010;51.488;7.232;2022-09-09T05:56:03;11.73;;;7.30;;
33491;SDS011;20010;51.488;7.232;2022-09-09T05:58:32;7.80;;;7.20;;
33491;SDS011;20010;51.488;7.232;2022-09-09T06:01:04;7.28;;;6.78;;
33491;SDS011;20010;51.488;7.232;2022-09-09T06:03:31;7.43;;;6.82;;
33491;SDS011;20010;51.488;7.232;2022-09-09T06:06:06;8.02;;;7.22;;
33491;SDS011;20010;51.488;7.232;2022-09-09T06:08:35;8.38;;;7.22;;
33491;SDS011;20010;51.488;7.232;2022-09-09T06:11:08;8.25;;;7.55;;
33491;SDS011;20010;51.488;7.232;2022-09-09T06:13:37;7.50;;;7.00;;
33491;SDS011;20010;51.488;7.232;2022-09-09T06:16:05;8.05;;;7.25;;
33491;SDS011;20010;51.488;7.232;2022-09-09T06:18:38;8.98;;;8.07;;
33491;SDS011;20010;51.488;7.232;2022-09-09T06:21:13;8.43;;;7.70;;
33491;SDS011;20010;51.488;7.232;2022-09-09T06:23:42;7.82;;;7.10;;
33491;SDS011;20010;51.488;7.232;2022-09-09T06:26:12;8.93;;;8.13;;
33491;SDS011;20010;51.488;7.232;2022-09-09T06:28:47;8.95;;;8.05;;
33491;SDS011;20010;51.488;7.232;2022-09-09T06:31:16;8.50;;;7.70;;
33491;SDS011;20010;51.488;7.232;2022-09-09T06:33:52;7.68;;;7.07;;
33491;SDS011;20010;51.488;7.232;2022-09-09T06:36:22;7.80;;;7.10;;
33491;SDS011;20010;51.488;7.232;2022-09-09T06:38:49;9.70;;;7.32;;
33491;SDS011;20010;51.488;7.232;2022-09-09T06:41:17;7.80;;;7.07;;
33491;SDS011;20010;51.488;7.232;2022-09-09T06:43:48;7.90;;;7.30;;
33491;SDS011;20010;51.488;7.232;2022-09-09T06:46:16;9.20;;;7.88;;
33491;SDS011;20010;51.488;7.232;2022-09-09T06:48:43;9.85;;;8.27;;
33491;SDS011;20010;51.488;7.232;2022-09-09T06:53:45;8.02;;;7.38;;
33491;SDS011;20010;51.488;7.232;2022-09-09T06:58:43;7.90;;;7.20;;
33491;SDS011;20010;51.488;7.232;2022-09-09T07:01:15;6.85;;;6.38;;
33491;SDS011;20010;51.488;7.232;2022-09-09T07:03:45;8.75;;;7.18;;
33491;SDS011;20010;51.488;7.232;2022-09-09T07:06:23;7.03;;;6.40;;
33491;SDS011;20010;51.488;7.232;2022-09-09T07:08:56;8.18;;;7.10;;
33491;SDS011;20010;51.488;7.232;2022-09-09T07:11:26;7.43;;;6.72;;
33491;SDS011;20010;51.488;7.232;2022-09-09T07:13:58;7.60;;;6.90;;
33491;SDS011;20010;51.488;7.232;2022-09-09T07:16:26;7.20;;;6.60;;
33491;SDS011;20010;51.488;7.232;2022-09-09T07:18:53;10.68;;;9.18;;
33491;SDS011;20010;51.488;7.232;2022-09-09T07:21:27;9.00;;;7.75;;
33491;SDS011;20010;51.488;7.232;2022-09-09T07:23:55;9.05;;;7.72;;
33491;SDS011;20010;51.488;7.232;2022-09-09T07:26:23;6.90;;;6.50;;
33491;SDS011;20010;51.488;7.232;2022-09-09T07:28:52;7.57;;;6.80;;
33491;SDS011;20010;51.488;7.232;2022-09-09T07:31:23;7.30;;;6.75;;
33491;SDS011;20010;51.488;7.232;2022-09-09T07:33:57;8.57;;;6.90;;
33491;SDS011;20010;51.488;7.232;2022-09-09T07:36:29;9.30;;;7.93;;
33491;SDS011;20010;51.488;7.232;2022-09-09T07:39:09;8.68;;;6.30;;
33491;SDS011;20010;51.488;7.232;2022-09-09T07:41:40;7.00;;;6.40;;
33491;SDS011;20010;51.488;7.232;2022-09-09T07:44:13;7.18;;;6.55;;
33491;SDS011;20010;51.488;7.232;2022-09-09T07:46:41;6.80;;;6.28;;
33491;SDS011;20010;51.488;7.232;2022-09-09T07:49:09;7.30;;;6.80;;
33491;SDS011;20010;51.488;7.232;2022-09-09T07:51:38;7.07;;;6.38;;
33491;SDS011;20010;51.488;7.232;2022-09-09T07:54:10;8.35;;;6.80;;
33491;SDS011;20010;51.488;7.232;2022-09-09T07:56:39;7.10;;;6.40;;
33491;SDS011;20010;51.488;7.232;2022-09-09T07:59:07;7.57;;;6.82;;
33491;SDS011;20010;51.488;7.232;2022-09-09T08:01:40;7.95;;;6.65;;
33491;SDS011;20010;51.488;7.232;2022-09-09T08:04:10;7.13;;;6.57;;
33491;SDS011;20010;51.488;7.232;2022-09-09T08:06:48;7.47;;;6.90;;
33491;SDS011;20010;51.488;7.232;2022-09-09T08:09:16;7.03;;;6.40;;
33491;SDS011;20010;51.488;7.232;2022-09-09T08:11:43;7.47;;;6.85;;
33491;SDS011;20010;51.488;7.232;2022-09-09T08:14:11;7.55;;;6.93;;
33491;SDS011;20010;51.488;7.232;2022-09-09T08:16:39;7.38;;;6.70;;
33491;SDS011;20010;51.488;7.232;2022-09-09T08:19:08;8.43;;;6.70;;
33491;SDS011;20010;51.488;7.232;2022-09-09T08:21:36;8.13;;;7.07;;
33491;SDS011;20010;51.488;7.232;2022-09-09T08:24:05;7.20;;;6.57;;
33491;SDS011;20010;51.488;7.232;2022-09-09T08:26:37;9.02;;;8.15;;
33491;SDS011;20010;51.488;7.232;2022-09-09T08:29:06;7.70;;;6.90;;
33491;SDS011;20010;51.488;7.232;2022-09-09T08:31:34;7.13;;;6.45;;
33491;SDS011;20010;51.488;7.232;2022-09-09T08:34:03;6.85;;;6.38;;
33491;SDS011;20010;51.488;7.232;2022-09-09T08:36:33;7.13;;;6.53;;
33491;SDS011;20010;51.488;7.232;2022-09-09T08:53:00;7.03;;;6.38;;
33491;SDS011;20010;51.488;7.232;2022-09-09T08:58:21;7.25;;;6.70;;
33491;SDS011;20010;51.488;7.232;2022-09-09T09:03:45;7.75;;;6.40;;
33491;SDS011;20010;51.488;7.232;2022-09-09T09:06:26;7.05;;;6.50;;
33491;SDS011;20010;51.488;7.232;2022-09-09T09:08:59;7.93;;;7.18;;
33491;SDS011;20010;51.488;7.232;2022-09-09T09:14:23;7.93;;;7.13;;
33491;SDS011;20010;51.488;7.232;2022-09-09T09:16:56;9.68;;;6.90;;
33491;SDS011;20010;51.488;7.232;2022-09-09T09:19:29;8.20;;;7.38;;
33491;SDS011;20010;51.488;7.232;2022-09-09T09:22:19;7.50;;;6.80;;
33491;SDS011;20010;51.488;7.232;2022-09-09T09:30:40;7.78;;;7.00;;
33491;SDS011;20010;51.488;7.232;2022-09-09T09:36:07;7.50;;;6.82;;
33491;SDS011;20010;51.488;7.232;2022-09-09T09:38:35;7.63;;;6.93;;
33491;SDS011;20010;51.488;7.232;2022-09-09T09:41:30;8.55;;;7.55;;
33491;SDS011;20010;51.488;7.232;2022-09-09T09:44:25;8.00;;;6.93;;
33491;SDS011;20010;51.488;7.232;2022-09-09T09:46:52;7.55;;;6.90;;
33491;SDS011;20010;51.488;7.232;2022-09-09T09:49:19;7.25;;;6.60;;
33491;SDS011;20010;51.488;7.232;2022-09-09T09:51:46;7.95;;;7.35;;
33491;SDS011;20010;51.488;7.232;2022-09-09T09:56:41;9.15;;;7.40;;
33491;SDS011;20010;51.488;7.232;2022-09-09T09:59:22;8.15;;;6.88;;
33491;SDS011;20010;51.488;7.232;2022-09-09T10:02:20;6.80;;;6.28;;
33491;SDS011;20010;51.488;7.232;2022-09-09T10:10:38;8.38;;;6.57;;
33491;SDS011;20010;51.488;7.232;2022-09-09T10:13:18;7.75;;;6.97;;
33491;SDS011;20010;51.488;7.232;2022-09-09T10:21:13;7.20;;;6.55;;
33491;SDS011;20010;51.488;7.232;2022-09-09T10:24:07;7.90;;;7.10;;
33491;SDS011;20010;51.488;7.232;2022-09-09T10:35:02;8.10;;;7.35;;
33491;SDS011;20010;51.488;7.232;2022-09-09T10:43:12;7.32;;;6.65;;
33491;SDS011;20010;51.488;7.232;2022-09-09T10:59:48;7.18;;;6.63;;
33491;SDS011;20010;51.488;7.232;2022-09-09T11:02:29;7.30;;;6.90;;
33491;SDS011;20010;51.488;7.232;2022-09-09T11:05:05;7.80;;;7.30;;
33491;SDS011;20010;51.488;7.232;2022-09-09T11:08:03;8.52;;;7.80;;
33491;SDS011;20010;51.488;7.232;2022-09-09T11:10:45;7.40;;;7.00;;
33491;SDS011;20010;51.488;7.232;2022-09-09T11:18:53;7.03;;;6.50;;
33491;SDS011;20010;51.488;7.232;2022-09-09T11:21:45;6.65;;;6.20;;
33491;SDS011;20010;51.488;7.232;2022-09-09T11:24:20;7.35;;;6.85;;
33491;SDS011;20010;51.488;7.232;2022-09-09T11:26:53;8.10;;;7.40;;
33491;SDS011;20010;51.488;7.232;2022-09-09T11:31:58;6.80;;;6.30;;
33491;SDS011;20010;51.488;7.232;2022-09-09T11:34:56;6.47;;;6.07;;
33491;SDS011;20010;51.488;7.232;2022-09-09T11:38:19;6.97;;;6.55;;
33491;SDS011;20010;51.488;7.232;2022-09-09T11:40:55;7.32;;;6.50;;
33491;SDS011;20010;51.488;7.232;2022-09-09T11:43:28;7.43;;;6.93;;
33491;SDS011;20010;51.488;7.232;2022-09-09T11:45:58;7.82;;;7.07;;
33491;SDS011;20010;51.488;7.232;2022-09-09T11:51:05;6.82;;;6.40;;
33491;SDS011;20010;51.488;7.232;2022-09-09T11:53:56;7.28;;;6.63;;
33491;SDS011;20010;51.488;7.232;2022-09-09T11:59:21;6.80;;;6.40;;
33491;SDS011;20010;51.488;7.232;2022-09-09T12:02:47;6.80;;;6.40;;
33491;SDS011;20010;51.488;7.232;2022-09-09T12:04:55;7.10;;;6.70;;
33491;SDS011;20010;51.488;7.232;2022-09-09T12:07:38;7.32;;;6.53;;
33491;SDS011;20010;51.488;7.232;2022-09-09T12:10:29;7.15;;;6.57;;
33491;SDS011;20010;51.488;7.232;2022-09-09T12:13:18;6.50;;;6.15;;
33491;SDS011;20010;51.488;7.232;2022-09-09T12:15:56;7.30;;;6.80;;
33491;SDS011;20010;51.488;7.232;2022-09-09T12:18:25;7.57;;;7.05;;
33491;SDS011;20010;51.488;7.232;2022-09-09T12:42:44;6.80;;;6.38;;
33491;SDS011;20010;51.488;7.232;2022-09-09T12:45:15;7.88;;;7.38;;
33491;SDS011;20010;51.488;7.232;2022-09-09T12:47:54;8.82;;;8.20;;
33491;SDS011;20010;51.488;7.232;2022-09-09T12:50:23;7.00;;;6.70;;
33491;SDS011;20010;51.488;7.232;2022-09-09T12:53:04;7.07;;;6.60;;
33491;SDS011;20010;51.488;7.232;2022-09-09T12:55:37;6.65;;;6.32;;
33491;SDS011;20010;51.488;7.232;2022-09-09T12:58:05;7.07;;;6.68;;
33491;SDS011;20010;51.488;7.232;2022-09-09T13:00:33;7.40;;;6.90;;
33491;SDS011;20010;51.488;7.232;2022-09-09T13:03:01;6.85;;;6.38;;
33491;SDS011;20010;51.488;7.232;2022-09-09T13:05:41;7.82;;;7.18;;
33491;SDS011;20010;51.488;7.232;2022-09-09T13:08:09;6.93;;;6.53;;
33491;SDS011;20010;51.488;7.232;2022-09-09T13:10:49;7.00;;;6.50;;
33491;SDS011;20010;51.488;7.232;2022-09-09T13:13:29;6.72;;;6.32;;
33491;SDS011;20010;51.488;7.232;2022-09-09T13:15:59;6.90;;;6.50;;
33491;SDS011;20010;51.488;7.232;2022-09-09T13:18:31;7.05;;;6.60;;
33491;SDS011;20010;51.488;7.232;2022-09-09T13:21:01;7.60;;;7.10;;
33491;SDS011;20010;51.488;7.232;2022-09-09T13:23:30;7.00;;;6.40;;
33491;SDS011;20010;51.488;7.232;2022-09-09T13:26:00;7.15;;;6.60;;
33491;SDS011;20010;51.488;7.232;2022-09-09T13:28:30;7.55;;;6.95;;
33491;SDS011;20010;51.488;7.232;2022-09-09T13:31:00;6.88;;;6.32;;
33491;SDS011;20010;51.488;7.232;2022-09-09T13:33:36;6.65;;;6.10;;
33491;SDS011;20010;51.488;7.232;2022-09-09T13:36:08;7.65;;;7.15;;
33491;SDS011;20010;51.488;7.232;2022-09-09T13:41:23;7.20;;;6.65;;
33491;SDS011;20010;51.488;7.232;2022-09-09T13:43:59;6.97;;;6.57;;
33491;SDS011;20010;51.488;7.232;2022-09-09T13:46:34;7.25;;;6.72;;
33491;SDS011;20010;51.488;7.232;2022-09-09T13:54:08;7.15;;;6.55;;
33491;SDS011;20010;51.488;7.232;2022-09-09T13:56:36;7.40;;;7.00;;
33491;SDS011;20010;51.488;7.232;2022-09-09T13:59:05;7.57;;;7.00;;
33491;SDS011;20010;51.488;7.232;2022-09-09T14:01:36;7.82;;;7.43;;
33491;SDS011;20010;51.488;7.232;2022-09-09T14:04:04;6.97;;;6.57;;
33491;SDS011;20010;51.488;7.232;2022-09-09T14:09:04;7.68;;;7.03;;
33491;SDS011;20010;51.488;7.232;2022-09-09T14:11:32;6.95;;;6.55;;
33491;SDS011;20010;51.488;7.232;2022-09-09T14:13:59;8.48;;;7.70;;
33491;SDS011;20010;51.488;7.232;2022-09-09T14:16:28;7.10;;;6.60;;
33491;SDS011;20010;51.488;7.232;2022-09-09T14:18:55;6.57;;;6.18;;
33491;SDS011;20010;51.488;7.232;2022-09-09T14:21:23;7.20;;;6.43;;
33491;SDS011;20010;51.488;7.232;2022-09-09T14:23:50;6.70;;;6.30;;
33491;SDS011;20010;51.488;7.232;2022-09-09T14:26:17;6.38;;;5.88;;
33491;SDS011;20010;51.488;7.232;2022-09-09T14:28:45;7.30;;;6.20;;
33491;SDS011;20010;51.488;7.232;2022-09-09T14:31:21;6.30;;;5.85;;
33491;SDS011;20010;51.488;7.232;2022-09-09T14:33:49;6.82;;;6.43;;
33491;SDS011;20010;51.488;7.232;2022-09-09T14:36:26;6.22;;;5.65;;
33491;SDS011;20010;51.488;7.232;2022-09-09T14:38:53;6.22;;;5.82;;
33491;SDS011;20010;51.488;7.232;2022-09-09T14:41:20;5.80;;;5.50;;
33491;SDS011;20010;51.488;7.232;2022-09-09T14:43:48;6.10;;;5.70;;
33491;SDS011;20010;51.488;7.232;2022-09-09T14:46:16;6.88;;;6.00;;
33491;SDS011;20010;51.488;7.232;2022-09-09T14:48:45;6.10;;;5.70;;
33491;SDS011;20010;51.488;7.232;2022-09-09T14:51:22;6.72;;;6.30;;
33491;SDS011;20010;51.488;7.232;2022-09-09T14:53:51;6.35;;;5.95;;
33491;SDS011;20010;51.488;7.232;2022-09-09T14:56:20;9.45;;;8.75;;
33491;SDS011;20010;51.488;7.232;2022-09-09T14:58:49;6.60;;;6.00;;
33491;SDS011;20010;51.488;7.232;2022-09-09T15:01:17;6.43;;;6.03;;
33491;SDS011;20010;51.488;7.232;2022-09-09T15:03:53;5.93;;;5.63;;
33491;SDS011;20010;51.488;7.232;2022-09-09T15:06:21;5.93;;;5.45;;
33491;SDS011;20010;51.488;7.232;2022-09-09T15:08:50;6.30;;;5.80;;
33491;SDS011;20010;51.488;7.232;2022-09-09T15:11:18;6.53;;;6.10;;
33491;SDS011;20010;51.488;7.232;2022-09-09T15:13:46;6.53;;;6.10;;
33491;SDS011;20010;51.488;7.232;2022-09-09T15:16:14;6.25;;;5.88;;
33491;SDS011;20010;51.488;7.232;2022-09-09T15:18:42;8.93;;;6.43;;
33491;SDS011;20010;51.488;7.232;2022-09-09T15:21:18;6.93;;;6.53;;
33491;SDS011;20010;51.488;7.232;2022-09-09T15:23:47;7.50;;;6.80;;
33491;SDS011;20010;51.488;7.232;2022-09-09T15:26:14;6.05;;;5.65;;
33491;SDS011;20010;51.488;7.232;2022-09-09T15:28:43;6.38;;;5.88;;
33491;SDS011;20010;51.488;7.232;2022-09-09T15:31:15;6.03;;;5.72;;
33491;SDS011;20010;51.488;7.232;2022-09-09T15:33:49;6.13;;;5.63;;
33491;SDS011;20010;51.488;7.232;2022-09-09T15:38:47;6.20;;;5.90;;
33491;SDS011;20010;51.488;7.232;2022-09-09T15:41:14;7.03;;;6.63;;
33491;SDS011;20010;51.488;7.232;2022-09-09T15:43:46;6.68;;;6.28;;
33491;SDS011;20010;51.488;7.232;2022-09-09T15:49:10;7.03;;;6.63;;
33491;SDS011;20010;51.488;7.232;2022-09-09T15:51:42;7.40;;;6.82;;
33491;SDS011;20010;51.488;7.232;2022-09-09T15:54:16;6.43;;;6.20;;
33491;SDS011;20010;51.488;7.232;2022-09-09T15:56:45;7.18;;;6.75;;
33491;SDS011;20010;51.488;7.232;2022-09-09T15:59:14;7.00;;;6.60;;
33491;SDS011;20010;51.488;7.232;2022-09-09T16:01:42;7.20;;;6.80;;
33491;SDS011;20010;51.488;7.232;2022-09-09T16:04:09;8.02;;;7.32;;
33491;SDS011;20010;51.488;7.232;2022-09-09T16:06:36;6.72;;;6.32;;
33491;SDS011;20010;51.488;7.232;2022-09-09T16:09:04;7.03;;;6.60;;
33491;SDS011;20010;51.488;7.232;2022-09-09T16:11:33;7.85;;;7.45;;
33491;SDS011;20010;51.488;7.232;2022-09-09T16:14:02;9.85;;;9.15;;
33491;SDS011;20010;51.488;7.232;2022-09-09T16:16:30;8.07;;;7.60;;
33491;SDS011;20010;51.488;7.232;2022-09-09T16:18:58;6.78;;;6.50;;
33491;SDS011;20010;51.488;7.232;2022-09-09T16:21:31;6.80;;;6.40;;
33491;SDS011;20010;51.488;7.232;2022-09-09T16:24:04;6.50;;;6.20;;
33491;SDS011;20010;51.488;7.232;2022-09-09T16:26:33;6.43;;;6.03;;
33491;SDS011;20010;51.488;7.232;2022-09-09T16:29:01;5.90;;;5.70;;
33491;SDS011;20010;51.488;7.232;2022-09-09T16:31:29;6.80;;;6.50;;
33491;SDS011;20010;51.488;7.232;2022-09-09T16:33:58;6.60;;;6.20;;
33491;SDS011;20010;51.488;7.232;2022-09-09T16:36:26;6.35;;;6.10;;
33491;SDS011;20010;51.488;7.232;2022-09-09T16:39:00;6.40;;;6.10;;
33491;SDS011;20010;51.488;7.232;2022-09-09T16:41:29;6.72;;;6.20;;
33491;SDS011;20010;51.488;7.232;2022-09-09T16:43:57;6.60;;;6.30;;
33491;SDS011;20010;51.488;7.232;2022-09-09T16:46:26;6.70;;;6.40;;
33491;SDS011;20010;51.488;7.232;2022-09-09T16:48:55;6.88;;;6.57;;
33491;SDS011;20010;51.488;7.232;2022-09-09T16:51:28;7.20;;;6.80;;
33491;SDS011;20010;51.488;7.232;2022-09-09T16:53:58;7.23;;;6.83;;
33491;SDS011;20010;51.488;7.232;2022-09-09T16:56:27;7.18;;;6.80;;
33491;SDS011;20010;51.488;7.232;2022-09-09T16:58:57;8.00;;;7.60;;
33491;SDS011;20010;51.488;7.232;2022-09-09T17:01:25;8.00;;;7.50;;
33491;SDS011;20010;51.488;7.232;2022-09-09T17:03:54;9.30;;;8.63;;
33491;SDS011;20010;51.488;7.232;2022-09-09T17:06:27;7.25;;;6.85;;
33491;SDS011;20010;51.488;7.232;2022-09-09T17:08:55;8.20;;;7.60;;
33491;SDS011;20010;51.488;7.232;2022-09-09T17:11:23;7.55;;;7.15;;
33491;SDS011;20010;51.488;7.232;2022-09-09T17:13:51;7.35;;;6.85;;
33491;SDS011;20010;51.488;7.232;2022-09-09T17:16:19;7.60;;;7.07;;
33491;SDS011;20010;51.488;7.232;2022-09-09T17:18:48;6.97;;;6.65;;
33491;SDS011;20010;51.488;7.232;2022-09-09T17:21:17;8.23;;;7.63;;
33491;SDS011;20010;51.488;7.232;2022-09-09T17:23:46;12.18;;;11.30;;
33491;SDS011;20010;51.488;7.232;2022-09-09T17:26:15;9.05;;;8.40;;
33491;SDS011;20010;51.488;7.232;2022-09-09T17:28:43;7.63;;;6.93;;
33491;SDS011;20010;51.488;7.232;2022-09-09T17:31:12;8.05;;;7.50;;
33491;SDS011;20010;51.488;7.232;2022-09-09T17:33:42;7.73;;;7.13;;
33491;SDS011;20010;51.488;7.232;2022-09-09T17:36:19;7.05;;;6.57;;
33491;SDS011;20010;51.488;7.232;2022-09-09T17:38:51;7.40;;;6.88;;
33491;SDS011;20010;51.488;7.232;2022-09-09T17:41:26;7.10;;;6.50;;
33491;SDS011;20010;51.488;7.232;2022-09-09T17:43:55;7.18;;;6.68;;
33491;SDS011;20010;51.488;7.232;2022-09-09T17:46:24;6.85;;;6.38;;
33491;SDS011;20010;51.488;7.232;2022-09-09T17:48:56;7.20;;;6.80;;
33491;SDS011;20010;51.488;7.232;2022-09-09T17:51:26;7.05;;;6.65;;
33491;SDS011;20010;51.488;7.232;2022-09-09T17:53:57;7.00;;;6.60;;
33491;SDS011;20010;51.488;7.232;2022-09-09T17:56:27;8.48;;;7.88;;
33491;SDS011;20010;51.488;7.232;2022-09-09T17:58:57;8.05;;;7.50;;
33491;SDS011;20010;51.488;7.232;2022-09-09T18:01:26;7.22;;;6.63;;